Time;durP1;ratioP1;P1;durP2;ratioP2;P2;SDS_P1;SDS_P2;PMS_P1;PMS_P2;Temp;Humidity;BMP_temperature;BMP_pressure;BME280_temperature;BME280_humidity;BME280_pressure;Samples;Min_cycle;Max_cycle;Signal;HPM_P1;HPM_P2
2022/05/12 00:09:21;;;;;;;8.63;4.57;;;15.10;99.90;;;;;;20750172;28;20495;-75
2022/05/12 00:19:23;;;;;;;;;;;14.90;99.90;;;;;;20749633;28;20516;-75
2022/05/12 00:29:25;;;;;;;3.78;2.83;;;14.60;99.90;;;;;;20747264;28;20008;-75
2022/05/12 00:39:26;;;;;;;4.30;2.80;;;14.70;99.90;;;;;;20747790;28;20033;-75
2022/05/12 00:49:30;;;;;;;4.40;3.07;;;14.50;99.90;;;;;;20746597;28;20069;-75
2022/05/12 00:59:33;;;;;;;4.38;3.10;;;14.20;99.90;;;;;;20746141;28;20034;-75
2022/05/12 01:09:34;;;;;;;5.40;3.35;;;14.50;99.90;;;;;;20745709;28;20037;-75
2022/05/12 01:19:39;;;;;;;5.13;3.50;;;14.20;99.90;;;;;;20745034;28;20488;-75
2022/05/12 01:29:39;;;;;;;6.55;3.70;;;14.00;99.90;;;;;;20743377;28;20041;-75
2022/05/12 01:39:40;;;;;;;5.67;3.87;;;14.00;99.90;;;;;;20743968;28;20025;-75
2022/05/12 01:49:42;;;;;;;8.23;3.70;;;14.00;99.90;;;;;;20743707;28;20030;-75
2022/05/12 01:59:43;;;;;;;4.28;3.67;;;13.80;99.90;;;;;;20741876;28;20073;-75
2022/05/12 02:09:44;;;;;;;6.93;4.10;;;14.00;99.90;;;;;;20756453;28;20427;-76
2022/05/12 02:19:44;;;;;;;7.93;3.83;;;13.80;99.90;;;;;;20757244;28;20121;-75
2022/05/12 02:29:45;;;;;;;5.17;3.63;;;13.70;99.90;;;;;;20805666;28;20180;-75
2022/05/12 02:39:46;;;;;;;5.80;3.60;;;13.70;99.90;;;;;;20839041;28;20029;-75
2022/05/12 02:49:47;;;;;;;6.73;4.13;;;13.60;99.90;;;;;;20865724;22;20038;-77
2022/05/12 02:59:48;;;;;;;8.40;3.80;;;13.50;99.90;;;;;;20871704;28;20116;-77
2022/05/12 03:09:49;;;;;;;7.33;4.00;;;13.40;99.90;;;;;;20855866;28;20475;-77
2022/05/12 03:19:49;;;;;;;7.97;3.63;;;13.40;99.90;;;;;;20859205;28;20029;-77
2022/05/12 03:29:50;;;;;;;6.17;3.90;;;13.20;99.90;;;;;;20870351;28;20033;-78
2022/05/12 03:39:51;;;;;;;10.77;3.43;;;13.30;99.90;;;;;;20872691;28;20033;-76
2022/05/12 03:49:57;;;;;;;6.77;3.20;;;13.20;99.90;;;;;;20832319;28;20372;-75
2022/05/12 03:59:58;;;;;;;6.80;3.83;;;13.10;99.90;;;;;;20836802;28;20041;-74
2022/05/12 04:10:03;;;;;;;7.37;3.87;;;13.00;99.90;;;;;;20828228;28;20090;-73
2022/05/12 04:20:06;;;;;;;6.90;3.30;;;13.10;99.90;;;;;;20817513;28;20041;-73
2022/05/12 04:30:08;;;;;;;8.80;3.17;;;13.10;99.90;;;;;;20839901;28;20372;-74
2022/05/12 04:40:11;;;;;;;5.88;3.47;;;13.50;99.90;;;;;;20848331;28;20480;-74
2022/05/12 04:50:17;;;;;;;4.10;3.00;;;13.90;99.90;;;;;;20839650;28;20384;-74
2022/05/12 05:00:21;;;;;;;6.10;4.10;;;14.20;99.90;;;;;;20859375;28;20060;-74
2022/05/12 05:10:23;;;;;;;4.85;3.75;;;14.50;99.90;;;;;;20874851;28;20035;-74
2022/05/12 05:20:26;;;;;;;8.65;3.85;;;14.80;99.90;;;;;;20849567;28;20029;-75
2022/05/12 05:30:28;;;;;;;7.72;3.70;;;15.00;99.90;;;;;;20829619;28;20064;-75
2022/05/12 05:40:30;;;;;;;7.60;4.03;;;15.20;99.90;;;;;;20827930;28;20029;-75
2022/05/12 06:00:57;;;;;;;8.77;4.80;;;16.10;99.90;;;;;;20809580;28;20033;-76
2022/05/12 06:11:04;;;;;;;7.50;4.20;;;16.20;99.90;;;;;;20829504;28;20040;-78
2022/05/12 06:21:05;;;;;;;3.92;2.78;;;16.60;99.90;;;;;;20837657;28;20044;-77
2022/05/12 06:31:06;;;;;;;9.32;2.97;;;17.10;99.90;;;;;;20815821;28;20045;-77
2022/05/12 06:41:07;;;;;;;6.07;2.83;;;17.70;99.90;;;;;;20826731;28;20044;-77
2022/05/12 06:51:09;;;;;;;7.70;2.67;;;17.90;99.90;;;;;;20833813;28;20381;-77
2022/05/12 07:01:11;;;;;;;7.03;3.00;;;18.30;99.90;;;;;;20840124;28;20123;-76
2022/05/12 07:11:12;;;;;;;6.70;2.75;;;18.30;99.90;;;;;;20845299;28;20025;-77
2022/05/12 07:31:32;;;;;;;8.60;2.35;;;19.10;99.90;;;;;;20835403;28;20280;-77
2022/05/12 07:41:33;;;;;;;3.23;2.07;;;20.00;99.90;;;;;;20834163;28;20029;-77
2022/05/12 07:51:34;;;;;;;5.37;2.33;;;20.40;99.90;;;;;;20815688;28;20495;-77
2022/05/12 08:01:35;;;;;;;3.57;1.97;;;20.90;99.90;;;;;;20832154;28;20040;-76
2022/05/12 08:11:36;;;;;;;5.47;1.70;;;21.30;99.90;;;;;;20832007;28;20088;-77
2022/05/12 08:21:36;;;;;;;3.87;3.00;;;22.00;99.90;;;;;;20833841;28;20443;-77
2022/05/12 08:31:37;;;;;;;5.30;1.63;;;22.60;99.90;;;;;;20830698;28;20506;-77
2022/05/12 08:42:14;;;;;;;5.20;2.10;;;23.60;99.90;;;;;;20830231;28;20483;-77
2022/05/12 08:52:24;;;;;;;5.50;1.92;;;23.60;99.90;;;;;;20768587;22;20064;-73
2022/05/12 09:02:25;;;;;;;7.35;1.80;;;23.70;99.90;;;;;;20832261;28;20044;-75
2022/05/12 09:12:35;;;;;;;6.73;1.77;;;23.30;99.90;;;;;;20839870;28;20041;-76
2022/05/12 09:22:37;;;;;;;11.63;1.88;;;24.90;99.90;;;;;;20826158;28;20030;-75
2022/05/12 09:32:40;;;;;;;8.57;2.58;;;25.40;99.90;;;;;;20825979;28;20041;-76
2022/05/12 09:42:46;;;;;;;5.20;1.73;;;24.90;99.90;;;;;;20825172;28;20049;-75
2022/05/12 09:53:02;;;;;;;4.78;1.83;;;23.70;99.90;;;;;;20824929;28;20029;-75
2022/05/12 10:13:35;;;;;;;10.20;1.77;;;24.20;99.90;;;;;;20823338;28;20034;-76
2022/05/12 10:23:49;;;;;;;4.38;1.98;;;26.50;99.90;;;;;;20826685;28;20479;-76
2022/05/12 10:33:57;;;;;;;6.97;2.30;;;26.90;99.90;;;;;;20839376;28;20392;-76
2022/05/12 10:43:58;;;;;;;7.53;1.83;;;27.30;99.90;;;;;;20838454;28;20458;-77
2022/05/12 10:54:22;;;;;;;4.38;1.80;;;27.90;99.90;;;;;;20820194;28;20104;-77
2022/05/12 11:04:41;;;;;;;4.65;2.13;;;27.50;99.90;;;;;;20837035;28;20120;-76
2022/05/12 11:14:53;;;;;;;8.90;1.77;;;26.20;99.90;;;;;;20836143;28;20026;-76
2022/05/12 11:25:02;;;;;;;4.60;1.88;;;27.00;99.90;;;;;;20835583;28;20036;-76
2022/05/12 11:35:25;;;;;;;4.43;1.67;;;27.00;99.90;;;;;;20816455;28;20038;-76
2022/05/12 11:45:38;;;;;;;9.48;2.40;;;26.30;99.90;;;;;;20833715;28;20091;-76
2022/05/12 11:56:03;;;;;;;6.47;2.17;;;26.70;99.90;;;;;;20832755;28;20407;-76
2022/05/12 12:06:05;;;;;;;6.90;2.72;;;26.70;99.90;;;;;;20832109;28;20029;-76
2022/05/12 12:16:14;;;;;;;5.97;2.20;;;26.70;99.90;;;;;;20831558;28;20040;-75
2022/05/12 12:26:31;;;;;;;6.80;2.30;;;27.50;99.90;;;;;;20830324;28;20039;-76
2022/05/12 12:36:35;;;;;;;5.00;2.40;;;27.60;99.90;;;;;;20829246;28;20112;-75
2022/05/12 12:46:45;;;;;;;7.53;2.08;;;28.00;99.90;;;;;;20827707;28;20033;-76
2022/05/12 12:56:46;;;;;;;7.10;2.42;;;27.70;99.90;;;;;;20828563;28;20559;-76
2022/05/12 13:06:53;;;;;;;4.18;2.25;;;27.60;99.90;;;;;;20809927;28;20040;-75
2022/05/12 13:16:54;;;;;;;9.73;2.00;;;27.00;99.90;;;;;;20825701;28;20036;-75
2022/05/12 13:26:59;;;;;;;7.43;2.28;;;26.20;99.90;;;;;;20826067;28;20124;-75
2022/05/12 13:37:24;;;;;;;6.07;2.28;;;26.80;99.90;;;;;;20827267;28;20524;-77
2022/05/12 13:47:35;;;;;;;8.25;2.42;;;28.10;99.90;;;;;;20828606;28;20037;-77
2022/05/12 13:57:41;;;;;;;;;;;28.40;99.90;;;;;;20831705;28;20555;-77
2022/05/12 14:07:43;;;;;;;10.95;3.22;;;28.10;99.90;;;;;;20848414;28;19913;-78
2022/05/12 14:28:05;;;;;;;3.80;2.00;;;28.70;99.90;;;;;;20839723;28;20030;-77
2022/05/12 14:38:06;;;;;;;4.78;1.88;;;28.70;99.90;;;;;;20839060;28;20095;-77
2022/05/12 14:48:08;;;;;;;12.57;2.50;;;28.60;99.90;;;;;;20823704;22;20050;-77
2022/05/12 14:58:10;;;;;;;5.03;1.90;;;27.90;99.90;;;;;;20756040;28;20391;-77
2022/05/12 15:08:11;;;;;;;7.70;2.33;;;27.90;99.90;;;;;;20707813;28;20030;-77
2022/05/12 15:18:12;;;;;;;5.80;2.50;;;27.50;99.90;;;;;;20662657;28;20034;-77
2022/05/12 15:28:22;;;;;;;8.73;2.38;;;26.80;99.90;;;;;;20658700;28;20537;-77
2022/05/12 15:38:26;;;;;;;9.95;2.63;;;26.10;99.90;;;;;;20672673;28;20039;-78
2022/05/12 15:48:27;;;;;;;5.82;1.95;;;25.40;99.90;;;;;;20683315;28;20030;-78
2022/05/12 15:58:28;;;;;;;;;;;25.00;99.90;;;;;;20652295;28;20555;-76
2022/05/12 16:08:28;;;;;;;8.83;2.93;;;24.30;99.90;;;;;;20654038;28;19921;-77
2022/05/12 16:18:29;;;;;;;9.73;3.20;;;23.00;99.90;;;;;;20690133;28;20282;-77
2022/05/12 16:28:35;;;;;;;11.33;3.20;;;21.20;99.90;;;;;;20656450;28;20041;-76
2022/05/12 16:38:37;;;;;;;10.98;4.38;;;19.50;99.90;;;;;;20711419;28;20033;-78
2022/05/12 16:48:38;;;;;;;10.13;3.75;;;19.20;99.90;;;;;;20726091;28;20096;-77
2022/05/12 16:58:39;;;;;;;10.10;3.42;;;19.70;99.90;;;;;;20716053;28;20042;-76
2022/05/12 17:08:40;;;;;;;8.63;4.23;;;20.20;99.90;;;;;;20721657;28;20403;-77
2022/05/12 17:18:43;;;;;;;12.30;4.63;;;19.70;99.90;;;;;;20724638;28;20112;-77
2022/05/12 17:28:44;;;;;;;9.45;4.55;;;19.50;99.90;;;;;;20679019;28;20037;-78
2022/05/12 17:38:46;;;;;;;10.80;4.70;;;19.70;99.90;;;;;;20683699;28;20530;-75
2022/05/12 17:48:47;;;;;;;13.05;4.60;;;19.50;99.90;;;;;;20686592;28;20044;-76
2022/05/12 17:58:48;;;;;;;14.10;5.27;;;19.20;99.90;;;;;;20687137;28;20034;-76
2022/05/12 18:08:53;;;;;;;16.47;5.60;;;19.10;99.90;;;;;;20649750;28;20038;-77
2022/05/12 18:18:54;;;;;;;10.15;5.03;;;19.00;99.90;;;;;;20642101;28;20038;-76
2022/05/12 18:28:55;;;;;;;12.13;4.33;;;19.00;99.90;;;;;;20675327;28;20129;-77
2022/05/12 18:38:56;;;;;;;13.63;4.23;;;18.90;99.90;;;;;;20683814;28;20057;-75
2022/05/12 18:48:57;;;;;;;12.20;3.90;;;18.90;99.90;;;;;;20650275;28;20095;-77
2022/05/12 18:58:59;;;;;;;12.98;4.57;;;18.70;99.90;;;;;;20686511;28;20026;-75
2022/05/12 19:09:00;;;;;;;;;;;18.60;99.90;;;;;;20724652;28;20500;-76
2022/05/12 19:19:01;;;;;;;8.45;4.60;;;18.40;99.90;;;;;;20660083;28;19989;-77
2022/05/12 19:29:01;;;;;;;7.60;4.37;;;18.30;99.90;;;;;;20673070;28;20026;-76
2022/05/12 19:39:02;;;;;;;15.53;4.83;;;18.20;99.90;;;;;;20681323;28;20030;-76
2022/05/12 19:49:03;;;;;;;13.93;5.50;;;18.10;99.90;;;;;;20671335;28;20050;-75
2022/05/12 19:59:05;;;;;;;9.20;5.83;;;17.90;99.90;;;;;;20673825;28;20054;-77
2022/05/12 20:09:06;;;;;;;17.67;5.50;;;17.70;99.90;;;;;;20682633;28;20038;-77
2022/05/12 20:19:07;;;;;;;9.43;5.30;;;17.70;99.90;;;;;;20750173;28;20144;-77
2022/05/12 20:29:08;;;;;;;9.47;5.20;;;17.70;99.90;;;;;;20749194;28;20030;-77
2022/05/12 20:39:09;;;;;;;12.57;5.73;;;17.60;99.90;;;;;;20752232;28;20101;-76
2022/05/12 20:49:12;;;;;;;17.02;5.10;;;17.60;99.90;;;;;;20786679;22;20048;-74
2022/05/12 20:59:13;;;;;;;9.95;4.95;;;17.50;99.90;;;;;;20912023;28;20095;-74
2022/05/12 21:09:14;;;;;;;6.43;4.93;;;17.60;99.90;;;;;;20985635;28;20146;-74
2022/05/12 21:19:15;;;;;;;12.18;5.95;;;17.50;99.90;;;;;;20991193;28;20028;-74
2022/05/12 21:29:16;;;;;;;17.03;5.83;;;17.40;99.90;;;;;;20989316;28;20035;-74
2022/05/12 21:39:19;;;;;;;11.87;6.00;;;17.20;99.90;;;;;;20990594;28;20025;-74
2022/05/12 21:49:20;;;;;;;15.23;5.95;;;17.20;99.90;;;;;;20987443;28;20035;-75
2022/05/12 22:09:40;;;;;;;10.88;6.25;;;17.20;99.90;;;;;;20985581;28;20028;-76
2022/05/12 22:19:42;;;;;;;13.57;5.60;;;17.10;99.90;;;;;;20989569;28;20032;-76
2022/05/12 22:29:43;;;;;;;9.82;5.78;;;17.10;99.90;;;;;;21004906;28;20029;-76
2022/05/12 22:39:45;;;;;;;11.77;6.10;;;17.10;99.90;;;;;;20970514;28;20482;-75
2022/05/12 22:49:45;;;;;;;8.57;5.55;;;17.10;99.90;;;;;;20960716;28;20021;-76
2022/05/12 22:59:46;;;;;;;12.40;6.80;;;17.00;99.90;;;;;;20961265;28;20046;-76
2022/05/12 23:09:47;;;;;;;18.47;7.23;;;16.90;99.90;;;;;;20972391;28;20029;-76
2022/05/12 23:30:09;;;;;;;13.82;8.35;;;16.60;99.90;;;;;;20999707;28;20037;-75
2022/05/12 23:40:11;;;;;;;16.30;8.50;;;16.50;99.90;;;;;;20999656;28;20429;-75
2022/05/12 23:50:12;;;;;;;11.93;7.18;;;16.40;99.90;;;;;;20998839;28;20039;-76
